createdAt,value
2022-08-26T00:04:12.139Z,54.10
2022-08-26T00:09:16.784Z,55.05
2022-08-26T00:14:19.461Z,56.65
2022-08-26T00:19:22.717Z,55.72
2022-08-26T00:24:27.246Z,52.70
2022-08-26T00:29:31.987Z,51.05
2022-08-26T00:34:38.014Z,54.63
2022-08-26T00:39:42.055Z,54.65
2022-08-26T00:44:45.297Z,55.65
2022-08-26T00:49:48.751Z,55.63
2022-08-26T00:55:00.388Z,53.15
2022-08-26T01:00:07.894Z,55.72
2022-08-26T01:05:12.351Z,52.50
2022-08-26T01:10:19.318Z,53.20
2022-08-26T01:15:25.660Z,51.17
2022-08-26T01:20:35.062Z,49.45
2022-08-26T01:25:43.042Z,48.28
2022-08-26T01:30:48.018Z,45.33
2022-08-26T01:35:51.240Z,44.58
2022-08-26T01:40:55.422Z,43.58
2022-08-26T01:45:59.994Z,39.90
2022-08-26T01:51:05.986Z,40.95
2022-08-26T01:56:12.296Z,40.75
2022-08-26T02:01:15.785Z,40.60
2022-08-26T02:06:19.585Z,38.58
2022-08-26T02:11:23.792Z,34.03
2022-08-26T02:16:28.738Z,37.58
2022-08-26T02:21:31.941Z,33.65
2022-08-26T02:26:36.594Z,33.58
2022-08-26T02:31:39.784Z,32.65
2022-08-26T02:36:42.774Z,31.77
2022-08-26T02:41:46.882Z,31.05
2022-08-26T02:46:50.551Z,28.30
2022-08-26T02:51:53.630Z,26.92
2022-08-26T02:56:57.520Z,24.90
2022-08-26T03:02:00.375Z,24.67
2022-08-26T03:12:07.447Z,22.67
2022-08-26T03:17:10.133Z,22.05
2022-08-26T03:22:14.516Z,20.15
2022-08-26T03:27:19.056Z,19.60
2022-08-26T03:32:21.612Z,21.00
2022-08-26T03:37:24.159Z,18.25
2022-08-26T03:42:28.441Z,19.15
2022-08-26T03:47:32.233Z,18.70
2022-08-26T03:52:34.782Z,18.65
2022-08-26T03:57:38.682Z,17.05
2022-08-26T04:02:41.354Z,16.60
2022-08-26T04:07:44.483Z,15.15
2022-08-26T04:12:48.677Z,14.43
2022-08-26T04:17:51.282Z,13.40
2022-08-26T04:22:54.098Z,13.57
2022-08-26T04:27:58.018Z,11.63
2022-08-26T04:33:00.546Z,12.32
2022-08-26T04:38:03.832Z,12.50
2022-08-26T04:43:09.896Z,11.93
2022-08-26T04:48:12.723Z,11.45
2022-08-26T04:53:19.391Z,12.63
2022-08-26T04:58:25.459Z,9.30
2022-08-26T05:03:30.454Z,8.93
2022-08-26T05:08:33.302Z,9.43
2022-08-26T05:18:43.450Z,8.85
2022-08-26T05:23:47.613Z,8.38
2022-08-26T05:28:54.886Z,7.57
2022-08-26T05:33:58.454Z,7.03
2022-08-26T05:39:01.759Z,6.70
2022-08-26T05:44:07.652Z,7.15
2022-08-26T05:49:12.457Z,7.45
2022-08-26T05:54:22.111Z,8.27
2022-08-26T05:59:26.957Z,6.80
2022-08-26T06:04:29.790Z,7.35
2022-08-26T06:14:36.581Z,6.85
2022-08-26T06:19:39.430Z,6.20
2022-08-26T06:25:01.780Z,5.60
2022-08-26T06:30:06.450Z,4.90
2022-08-26T06:35:11.872Z,4.85
2022-08-26T06:40:15.180Z,4.05
2022-08-26T06:45:19.667Z,4.10
2022-08-26T06:50:22.567Z,3.67
2022-08-26T06:55:27.048Z,4.57
2022-08-26T07:00:32.203Z,3.55
2022-08-26T07:05:36.042Z,3.30
2022-08-26T07:10:38.571Z,2.45
2022-08-26T07:15:43.152Z,3.10
2022-08-26T07:20:45.745Z,2.92
2022-08-26T07:25:48.310Z,2.83
2022-08-26T07:30:52.634Z,4.07
2022-08-26T07:35:56.019Z,3.40
2022-08-26T07:40:58.559Z,3.95
2022-08-26T07:46:02.946Z,3.50
2022-08-26T07:51:05.608Z,3.28
2022-08-26T08:01:12.734Z,3.58
2022-08-26T08:06:16.453Z,3.25
2022-08-26T08:16:24.930Z,3.08
2022-08-26T08:21:29.158Z,2.80
2022-08-26T08:26:31.694Z,3.35
2022-08-26T08:31:56.897Z,3.00
2022-08-26T08:36:59.813Z,2.70
2022-08-26T08:42:25.479Z,2.95
2022-08-26T08:47:35.083Z,3.20
2022-08-26T08:52:39.079Z,2.60
2022-08-26T08:58:07.948Z,2.80
2022-08-26T09:03:25.431Z,2.63
2022-08-26T09:08:35.134Z,2.45
2022-08-26T09:13:40.755Z,2.72
2022-08-26T09:19:00.733Z,2.70
2022-08-26T09:24:04.031Z,2.38
2022-08-26T09:29:08.915Z,2.35
2022-08-26T09:34:17.858Z,2.30
2022-08-26T09:39:31.034Z,2.42
2022-08-26T09:44:34.634Z,2.20
2022-08-26T09:49:39.817Z,1.90
2022-08-26T09:54:46.231Z,2.22
2022-08-26T09:59:49.348Z,2.20
2022-08-26T10:04:56.455Z,1.70
2022-08-26T10:09:59.149Z,1.90
2022-08-26T10:15:09.076Z,2.20
2022-08-26T10:20:23.401Z,1.88
2022-08-26T10:25:30.162Z,1.88
2022-08-26T10:30:38.379Z,2.22
2022-08-26T10:35:51.035Z,2.10
2022-08-26T10:40:59.303Z,2.13
2022-08-26T10:46:06.888Z,1.88
2022-08-26T10:51:13.714Z,2.00
2022-08-26T10:56:28.557Z,1.85
2022-08-26T11:01:46.981Z,2.30
2022-08-26T11:07:26.603Z,1.95
2022-08-26T11:12:54.170Z,1.65
2022-08-26T11:18:07.154Z,1.75
2022-08-26T11:23:50.514Z,2.33
2022-08-26T11:28:57.002Z,2.05
2022-08-26T11:34:00.811Z,2.40
2022-08-26T11:39:05.652Z,2.05
2022-08-26T11:44:10.276Z,1.92
2022-08-26T11:49:14.672Z,2.20
2022-08-26T11:54:31.871Z,2.45
2022-08-26T11:59:42.349Z,2.28
2022-08-26T12:04:49.112Z,2.50
2022-08-26T12:09:55.324Z,2.17
2022-08-26T12:15:10.107Z,2.13
2022-08-26T12:20:31.058Z,2.20
2022-08-26T12:25:36.113Z,1.58
2022-08-26T12:30:40.206Z,1.35
2022-08-26T12:35:42.984Z,1.83
2022-08-26T12:40:47.782Z,1.88
2022-08-26T12:45:59.883Z,1.67
2022-08-26T12:51:03.632Z,2.00
2022-08-26T12:56:22.479Z,1.70
2022-08-26T13:01:26.475Z,1.80
2022-08-26T13:06:31.374Z,1.85
2022-08-26T13:11:36.416Z,1.58
2022-08-26T13:16:41.993Z,2.08
2022-08-26T13:21:47.860Z,2.08
2022-08-26T13:26:51.279Z,1.88
2022-08-26T13:31:55.713Z,1.67
2022-08-26T13:36:58.874Z,1.35
2022-08-26T13:42:01.607Z,1.73
2022-08-26T13:47:06.190Z,1.15
2022-08-26T13:52:08.790Z,1.42
2022-08-26T13:57:11.442Z,1.58
2022-08-26T14:02:16.545Z,1.63
2022-08-26T14:07:19.130Z,1.60
2022-08-26T14:17:26.179Z,1.92
2022-08-26T14:22:28.918Z,1.50
2022-08-26T14:27:31.491Z,1.30
2022-08-26T14:42:41.854Z,1.70
2022-08-26T14:47:46.556Z,1.77
2022-08-26T14:53:07.154Z,1.33
2022-08-26T14:58:10.629Z,1.13
2022-08-26T15:08:18.222Z,1.40
2022-08-26T15:13:20.790Z,1.60
2022-08-26T15:23:27.173Z,2.00
2022-08-26T15:28:30.562Z,1.90
2022-08-26T15:43:41.861Z,1.25
2022-08-26T15:48:45.925Z,2.20
2022-08-26T15:53:48.541Z,1.42
2022-08-26T16:03:55.331Z,1.30
2022-08-26T16:08:58.899Z,2.90
2022-08-26T16:14:01.520Z,1.77
2022-08-26T16:24:10.804Z,1.98
2022-08-26T16:29:15.496Z,1.92
2022-08-26T16:34:19.396Z,1.48
2022-08-26T16:39:21.993Z,1.50
2022-08-26T16:44:28.031Z,1.73
2022-08-26T16:49:34.813Z,1.90
2022-08-26T16:54:39.780Z,1.45
2022-08-26T16:59:42.758Z,1.90
2022-08-26T17:04:49.258Z,1.70
2022-08-26T17:09:53.250Z,1.50
2022-08-26T17:20:00.803Z,1.70
2022-08-26T17:25:03.403Z,1.70
2022-08-26T17:30:07.021Z,1.60
2022-08-26T17:35:12.923Z,1.90
2022-08-26T17:40:18.668Z,1.85
2022-08-26T17:45:21.622Z,2.60
2022-08-26T17:50:25.586Z,3.90
2022-08-26T17:55:28.209Z,3.50
2022-08-26T18:00:30.750Z,2.17
2022-08-26T18:05:34.785Z,2.65
2022-08-26T18:10:37.347Z,3.10
2022-08-26T18:15:40.030Z,2.30
2022-08-26T18:20:46.347Z,1.65
2022-08-26T18:25:56.630Z,1.50
2022-08-26T18:30:59.216Z,2.10
2022-08-26T18:36:03.587Z,1.50
2022-08-26T18:41:06.267Z,1.70
2022-08-26T18:46:10.724Z,1.60
2022-08-26T18:51:18.378Z,1.65
2022-08-26T18:56:20.979Z,1.42
2022-08-26T19:01:27.409Z,1.98
2022-08-26T19:06:35.342Z,1.58
2022-08-26T19:11:42.728Z,1.63
2022-08-26T19:16:48.350Z,1.40
2022-08-26T19:21:52.651Z,2.00
2022-08-26T19:26:58.205Z,1.70
2022-08-26T19:32:01.870Z,1.48
2022-08-26T19:37:05.812Z,1.42
2022-08-26T19:42:08.430Z,1.60
2022-08-26T19:47:12.490Z,1.65
2022-08-26T19:52:16.380Z,1.48
2022-08-26T19:57:18.961Z,1.90
2022-08-26T20:02:21.575Z,1.48
2022-08-26T20:07:25.546Z,1.80
2022-08-26T20:12:29.198Z,1.45
2022-08-26T20:17:31.910Z,1.88
2022-08-26T20:22:35.816Z,1.85
2022-08-26T20:27:38.645Z,1.60
2022-08-26T20:32:42.298Z,1.55
2022-08-26T20:37:46.180Z,1.85
2022-08-26T20:42:48.786Z,1.83
2022-08-26T20:47:52.441Z,1.73
2022-08-26T20:52:56.357Z,1.42
2022-08-26T20:57:58.928Z,1.65
2022-08-26T21:03:01.505Z,1.77
2022-08-26T21:08:05.611Z,1.80
2022-08-26T21:13:09.000Z,2.55
2022-08-26T21:18:11.816Z,1.65
2022-08-26T21:23:15.805Z,1.67
2022-08-26T21:28:18.416Z,1.58
2022-08-26T21:33:20.990Z,2.35
2022-08-26T21:38:24.965Z,2.50
2022-08-26T21:43:35.333Z,2.13
2022-08-26T21:48:40.313Z,2.13
2022-08-26T21:53:44.470Z,2.17
2022-08-26T21:58:47.607Z,2.60
2022-08-26T22:03:52.229Z,1.75
2022-08-26T22:08:56.585Z,1.80
2022-08-26T22:13:59.179Z,1.88
2022-08-26T22:19:02.045Z,2.42
2022-08-26T22:24:08.469Z,1.63
2022-08-26T22:29:11.113Z,2.10
2022-08-26T22:34:17.254Z,1.90
2022-08-26T22:39:23.796Z,1.90
2022-08-26T22:44:26.548Z,1.98
2022-08-26T22:49:29.202Z,2.42
2022-08-26T22:54:33.892Z,2.35
2022-08-26T22:59:36.454Z,2.13
2022-08-26T23:04:39.066Z,2.05
2022-08-26T23:09:43.119Z,2.20
2022-08-26T23:14:46.176Z,2.15
2022-08-26T23:24:52.693Z,2.00
2022-08-26T23:29:57.326Z,2.33
2022-08-26T23:34:59.945Z,2.10
2022-08-26T23:40:07.137Z,2.20
2022-08-26T23:45:13.029Z,2.10
2022-08-26T23:50:15.598Z,2.25
2022-08-26T23:55:19.570Z,2.85
